Time;durP1;ratioP1;P1;durP2;ratioP2;P2;SDS_P1;SDS_P2;PMS_P1;PMS_P2;Temp;Humidity;BMP_temperature;BMP_pressure;BME280_temperature;BME280_humidity;BME280_pressure;Samples;Min_cycle;Max_cycle;Signal;HPM_P1;HPM_P2
2022/06/21 00:00:32;;;;;;;13.67;4.23;;;;;;;;;;5078530;28;20436;-73
2022/06/21 00:03:00;;;;;;;13.23;3.92;;;;;;;;;;5077489;28;20432;-72
2022/06/21 00:05:29;;;;;;;17.73;4.10;;;;;;;;;;5077385;28;20420;-72
2022/06/21 00:07:56;;;;;;;9.98;3.70;;;;;;;;;;5076672;28;20411;-72
2022/06/21 00:10:24;;;;;;;14.25;5.00;;;;;;;;;;5075357;28;20485;-73
2022/06/21 00:12:50;;;;;;;7.47;3.83;;;;;;;;;;5074742;28;20408;-72
2022/06/21 00:15:16;;;;;;;16.50;5.20;;;;;;;;;;5076590;28;20427;-72
2022/06/21 00:17:46;;;;;;;13.48;4.22;;;;;;;;;;5076265;28;20420;-72
2022/06/21 00:20:13;;;;;;;13.85;5.40;;;;;;;;;;5076975;28;20431;-73
2022/06/21 00:22:40;;;;;;;16.10;5.85;;;;;;;;;;5075786;28;20422;-72
2022/06/21 00:25:10;;;;;;;14.00;4.90;;;;;;;;;;5076534;28;20422;-72
2022/06/21 00:27:36;;;;;;;12.17;4.47;;;;;;;;;;5072287;28;20883;-72
2022/06/21 00:30:02;;;;;;;9.60;4.30;;;;;;;;;;5076699;28;20431;-72
2022/06/21 00:32:29;;;;;;;14.00;3.70;;;;;;;;;;5076907;28;20419;-73
2022/06/21 00:34:57;;;;;;;11.77;4.45;;;;;;;;;;5074969;28;20429;-73
2022/06/21 00:37:23;;;;;;;13.45;4.43;;;;;;;;;;5076988;28;20431;-72
2022/06/21 00:39:51;;;;;;;13.60;4.50;;;;;;;;;;5077447;28;20431;-72
2022/06/21 00:42:20;;;;;;;14.73;4.28;;;;;;;;;;5075831;28;20533;-72
2022/06/21 00:44:49;;;;;;;11.93;4.15;;;;;;;;;;5074012;28;20427;-72
2022/06/21 00:47:17;;;;;;;13.30;4.38;;;;;;;;;;5076444;28;20423;-72
2022/06/21 00:49:50;;;;;;;15.60;4.80;;;;;;;;;;5077702;28;20426;-72
2022/06/21 00:52:20;;;;;;;11.52;4.10;;;;;;;;;;5076367;28;20418;-72
2022/06/21 00:54:50;;;;;;;11.60;3.90;;;;;;;;;;5075199;28;20448;-72
2022/06/21 00:57:18;;;;;;;9.60;3.90;;;;;;;;;;5075724;28;20427;-72
2022/06/21 00:59:45;;;;;;;10.27;3.60;;;;;;;;;;5076752;28;20429;-72
2022/06/21 01:02:17;;;;;;;10.60;4.07;;;;;;;;;;5075336;28;20524;-72
2022/06/21 01:04:45;;;;;;;12.02;3.70;;;;;;;;;;5076758;28;20433;-72
2022/06/21 01:07:12;;;;;;;14.63;4.10;;;;;;;;;;5077645;28;20491;-73
2022/06/21 01:09:43;;;;;;;17.88;4.28;;;;;;;;;;5078522;28;20433;-72
2022/06/21 01:12:11;;;;;;;11.45;3.88;;;;;;;;;;5077922;28;20422;-72
2022/06/21 01:14:38;;;;;;;12.63;4.00;;;;;;;;;;5081244;28;21102;-72
2022/06/21 01:17:06;;;;;;;12.45;4.20;;;;;;;;;;5078539;28;20442;-72
2022/06/21 01:19:36;;;;;;;11.35;3.90;;;;;;;;;;5079121;28;20434;-72
2022/06/21 01:22:07;;;;;;;7.67;4.10;;;;;;;;;;5079485;28;20433;-72
2022/06/21 01:24:36;;;;;;;11.55;3.90;;;;;;;;;;5078296;28;20415;-72
2022/06/21 01:27:04;;;;;;;8.20;4.00;;;;;;;;;;5080962;28;20438;-72
2022/06/21 01:29:31;;;;;;;9.47;3.67;;;;;;;;;;5078459;28;20435;-72
2022/06/21 01:32:00;;;;;;;12.18;3.97;;;;;;;;;;5079701;28;20413;-72
2022/06/21 01:34:27;;;;;;;8.63;3.83;;;;;;;;;;5079960;28;20418;-72
2022/06/21 01:36:54;;;;;;;11.52;3.90;;;;;;;;;;5078545;28;20438;-72
2022/06/21 01:39:22;;;;;;;8.65;3.30;;;;;;;;;;5078185;28;20453;-72
2022/06/21 01:41:51;;;;;;;10.27;3.90;;;;;;;;;;5076795;28;20439;-72
2022/06/21 01:44:21;;;;;;;10.23;4.40;;;;;;;;;;5079648;28;20783;-72
2022/06/21 01:46:47;;;;;;;9.98;3.97;;;;;;;;;;5078862;28;20431;-72
2022/06/21 01:49:15;;;;;;;8.80;4.18;;;;;;;;;;5077465;28;20436;-72
2022/06/21 01:51:42;;;;;;;13.53;4.13;;;;;;;;;;5079273;28;20527;-72
2022/06/21 01:54:10;;;;;;;9.32;3.53;;;;;;;;;;5077390;28;20435;-72
2022/06/21 01:56:38;;;;;;;10.68;4.00;;;;;;;;;;5078867;28;20427;-72
2022/06/21 01:59:07;;;;;;;14.15;4.70;;;;;;;;;;5076744;28;20426;-72
2022/06/21 02:01:47;;;;;;;11.80;5.10;;;;;;;;;;5079852;28;20456;-72
2022/06/21 02:04:16;;;;;;;18.30;8.52;;;;;;;;;;5077659;28;20426;-72
2022/06/21 02:06:43;;;;;;;14.73;7.80;;;;;;;;;;5079204;28;20438;-72
2022/06/21 02:09:12;;;;;;;17.40;10.48;;;;;;;;;;5078810;28;20790;-72
2022/06/21 02:11:41;;;;;;;17.23;10.52;;;;;;;;;;5076688;28;20431;-72
2022/06/21 02:14:30;;;;;;;19.17;9.90;;;;;;;;;;5077109;28;20426;-72
2022/06/21 02:17:02;;;;;;;18.25;9.85;;;;;;;;;;5078020;28;20432;-72
2022/06/21 02:19:31;;;;;;;18.58;9.85;;;;;;;;;;5080363;28;20418;-72
2022/06/21 02:21:57;;;;;;;16.25;9.65;;;;;;;;;;5081575;28;20420;-72
2022/06/21 02:24:28;;;;;;;16.50;9.27;;;;;;;;;;5079922;28;20428;-72
2022/06/21 02:26:54;;;;;;;15.90;9.50;;;;;;;;;;5079720;28;20435;-72
2022/06/21 02:29:21;;;;;;;20.47;10.77;;;;;;;;;;5077229;28;20494;-72
2022/06/21 02:31:47;;;;;;;19.58;10.55;;;;;;;;;;5080310;28;20421;-72
2022/06/21 02:34:18;;;;;;;13.20;9.30;;;;;;;;;;5077191;28;20923;-72
2022/06/21 02:36:47;;;;;;;15.27;9.57;;;;;;;;;;5076269;28;20421;-72
2022/06/21 02:39:15;;;;;;;14.93;9.98;;;;;;;;;;5077792;28;20425;-72
2022/06/21 02:41:43;;;;;;;18.55;11.07;;;;;;;;;;5074280;28;20427;-72
2022/06/21 02:44:13;;;;;;;22.40;12.25;;;;;;;;;;5075674;28;21649;-72
2022/06/21 02:46:41;;;;;;;18.00;11.33;;;;;;;;;;5079400;28;21187;-72
2022/06/21 02:49:13;;;;;;;21.75;12.93;;;;;;;;;;5075948;28;20949;-72
2022/06/21 02:51:43;;;;;;;18.35;11.02;;;;;;;;;;5077545;28;20435;-72
2022/06/21 02:54:13;;;;;;;17.40;12.33;;;;;;;;;;5075951;28;20428;-72
2022/06/21 02:56:41;;;;;;;24.15;16.00;;;;;;;;;;5076846;28;20431;-72
2022/06/21 02:59:08;;;;;;;23.60;15.65;;;;;;;;;;5076363;28;20886;-72
2022/06/21 03:01:36;;;;;;;22.27;16.17;;;;;;;;;;5077476;28;20442;-72
2022/06/21 03:04:04;;;;;;;23.90;17.20;;;;;;;;;;5076961;28;20432;-72
2022/06/21 03:06:31;;;;;;;25.35;16.65;;;;;;;;;;5079088;28;20414;-72
2022/06/21 03:09:00;;;;;;;19.58;16.10;;;;;;;;;;5077573;28;20418;-73
2022/06/21 03:11:28;;;;;;;19.33;14.70;;;;;;;;;;5076902;28;20518;-72
2022/06/21 03:13:54;;;;;;;17.02;13.25;;;;;;;;;;5079030;28;20429;-72
2022/06/21 03:16:22;;;;;;;23.90;13.27;;;;;;;;;;5075463;28;20437;-72
2022/06/21 03:18:51;;;;;;;18.13;12.57;;;;;;;;;;5077707;28;20455;-72
2022/06/21 03:21:20;;;;;;;17.05;12.52;;;;;;;;;;5077750;28;20496;-72
2022/06/21 03:23:46;;;;;;;22.48;13.57;;;;;;;;;;5076759;28;20438;-72
2022/06/21 03:26:14;;;;;;;19.47;14.27;;;;;;;;;;5077747;28;20423;-72
2022/06/21 03:28:41;;;;;;;29.45;17.52;;;;;;;;;;5076796;28;20428;-72
2022/06/21 03:31:10;;;;;;;25.40;15.10;;;;;;;;;;5077431;28;20438;-72
2022/06/21 03:33:37;;;;;;;23.48;17.77;;;;;;;;;;5074491;28;20800;-72
2022/06/21 03:36:06;;;;;;;22.70;16.85;;;;;;;;;;5078279;28;20427;-72
2022/06/21 03:38:33;;;;;;;25.88;17.10;;;;;;;;;;5074812;28;20484;-73
2022/06/21 03:43:46;;;;;;;15.10;11.57;;;;;;;;;;5077574;28;20903;-72
2022/06/21 03:46:16;;;;;;;21.27;13.98;;;;;;;;;;5077847;28;20838;-72
2022/06/21 03:48:44;;;;;;;18.63;13.40;;;;;;;;;;5076450;28;20421;-72
2022/06/21 03:51:14;;;;;;;19.55;13.20;;;;;;;;;;5078334;28;20425;-72
2022/06/21 03:53:42;;;;;;;18.55;12.13;;;;;;;;;;5077471;28;20456;-72
2022/06/21 03:56:14;;;;;;;17.27;12.00;;;;;;;;;;5075009;28;20427;-72
2022/06/21 03:58:47;;;;;;;18.00;11.33;;;;;;;;;;5076916;28;20429;-72
2022/06/21 04:01:15;;;;;;;16.38;10.70;;;;;;;;;;5077944;28;20803;-72
2022/06/21 04:03:43;;;;;;;19.80;12.57;;;;;;;;;;5077224;28;20909;-72
2022/06/21 04:06:12;;;;;;;15.80;10.80;;;;;;;;;;5073973;28;20819;-72
2022/06/21 04:08:40;;;;;;;20.10;11.97;;;;;;;;;;5076565;28;20794;-72
2022/06/21 04:11:09;;;;;;;16.93;11.50;;;;;;;;;;5077424;28;20431;-72
2022/06/21 04:13:39;;;;;;;10.80;8.82;;;;;;;;;;5076054;28;20427;-72
2022/06/21 04:16:09;;;;;;;19.45;10.05;;;;;;;;;;5076740;28;20824;-72
2022/06/21 04:18:39;;;;;;;17.13;8.73;;;;;;;;;;5075444;28;20432;-72
2022/06/21 04:21:08;;;;;;;11.55;7.55;;;;;;;;;;5076622;28;20433;-72
2022/06/21 04:23:37;;;;;;;13.57;7.10;;;;;;;;;;5076458;28;20415;-72
2022/06/21 04:26:06;;;;;;;15.13;8.02;;;;;;;;;;5076268;28;20430;-72
2022/06/21 04:28:34;;;;;;;13.53;6.50;;;;;;;;;;5073022;28;20439;-72
2022/06/21 04:31:03;;;;;;;9.55;5.80;;;;;;;;;;5072607;28;20435;-72
2022/06/21 04:33:33;;;;;;;11.68;6.63;;;;;;;;;;5076108;28;20423;-72
2022/06/21 04:36:01;;;;;;;16.53;7.20;;;;;;;;;;5076168;28;20423;-73
2022/06/21 04:38:31;;;;;;;11.73;6.72;;;;;;;;;;5074817;28;20426;-72
2022/06/21 04:41:01;;;;;;;13.20;5.72;;;;;;;;;;5078252;28;20495;-72
2022/06/21 04:43:31;;;;;;;9.57;6.63;;;;;;;;;;5073031;28;20524;-72
2022/06/21 04:46:00;;;;;;;11.68;6.10;;;;;;;;;;5080217;28;20796;-72
2022/06/21 04:48:31;;;;;;;14.82;6.20;;;;;;;;;;5078709;28;20437;-72
2022/06/21 04:51:01;;;;;;;14.23;6.53;;;;;;;;;;5083458;28;20417;-72
2022/06/21 04:53:29;;;;;;;12.30;6.00;;;;;;;;;;5078208;28;20429;-72
2022/06/21 04:56:00;;;;;;;10.65;5.80;;;;;;;;;;5082219;28;20428;-72
2022/06/21 04:58:27;;;;;;;14.18;6.53;;;;;;;;;;5079173;28;20434;-72
2022/06/21 05:00:53;;;;;;;11.32;6.32;;;;;;;;;;5079669;28;20431;-72
2022/06/21 05:03:26;;;;;;;14.00;6.05;;;;;;;;;;5081334;28;20426;-72
2022/06/21 05:05:52;;;;;;;14.43;6.50;;;;;;;;;;5082857;28;20449;-72
2022/06/21 05:08:22;;;;;;;13.52;6.20;;;;;;;;;;5081019;28;20432;-72
2022/06/21 05:10:51;;;;;;;12.75;6.35;;;;;;;;;;5081836;28;20426;-72
2022/06/21 05:13:19;;;;;;;6.82;4.95;;;;;;;;;;5082105;28;20901;-72
2022/06/21 05:15:46;;;;;;;13.55;6.32;;;;;;;;;;5078606;28;20961;-73
2022/06/21 05:18:14;;;;;;;13.70;7.53;;;;;;;;;;5081138;28;20786;-73
2022/06/21 05:20:44;;;;;;;11.32;6.40;;;;;;;;;;5081289;28;20426;-73
2022/06/21 05:23:11;;;;;;;11.25;6.40;;;;;;;;;;5078557;28;20434;-73
2022/06/21 05:25:41;;;;;;;12.00;6.22;;;;;;;;;;5082124;28;20993;-74
2022/06/21 05:28:13;;;;;;;14.73;5.95;;;;;;;;;;5078623;28;20425;-73
2022/06/21 05:30:41;;;;;;;13.23;6.53;;;;;;;;;;5080422;28;20502;-73
2022/06/21 05:33:11;;;;;;;13.88;8.05;;;;;;;;;;5079545;28;20420;-73
2022/06/21 05:35:38;;;;;;;15.82;7.70;;;;;;;;;;5079168;28;20438;-73
2022/06/21 05:38:06;;;;;;;12.43;6.73;;;;;;;;;;5094437;22;20418;-73
2022/06/21 05:40:37;;;;;;;14.35;7.30;;;;;;;;;;5078397;28;20454;-72
2022/06/21 05:43:05;;;;;;;15.73;7.57;;;;;;;;;;5078389;28;20948;-72
2022/06/21 05:45:34;;;;;;;14.10;7.35;;;;;;;;;;5077691;28;20427;-72
2022/06/21 05:48:02;;;;;;;11.73;6.25;;;;;;;;;;5078809;28;20427;-73
2022/06/21 05:50:29;;;;;;;9.93;6.05;;;;;;;;;;5077295;28;20421;-72
2022/06/21 05:52:57;;;;;;;12.83;6.20;;;;;;;;;;5078018;28;20413;-72
2022/06/21 05:55:25;;;;;;;13.00;5.30;;;;;;;;;;5077844;28;20422;-73
2022/06/21 05:57:53;;;;;;;15.15;5.80;;;;;;;;;;5079978;28;20821;-72
2022/06/21 06:00:26;;;;;;;10.60;4.70;;;;;;;;;;5079804;28;20440;-72
2022/06/21 06:02:55;;;;;;;11.68;5.13;;;;;;;;;;5080367;28;20424;-72
2022/06/21 06:05:24;;;;;;;15.57;4.93;;;;;;;;;;5080253;28;20417;-72
2022/06/21 06:07:52;;;;;;;9.98;5.05;;;;;;;;;;5078551;28;20426;-72
2022/06/21 06:10:20;;;;;;;8.85;5.07;;;;;;;;;;5080609;28;20787;-72
2022/06/21 06:12:49;;;;;;;14.82;5.40;;;;;;;;;;5079333;28;20414;-72
2022/06/21 06:15:25;;;;;;;11.13;5.20;;;;;;;;;;5078875;28;20927;-72
2022/06/21 06:17:54;;;;;;;10.63;5.40;;;;;;;;;;5076531;28;20409;-72
2022/06/21 06:20:24;;;;;;;7.40;4.40;;;;;;;;;;5078699;28;20407;-72
2022/06/21 06:22:55;;;;;;;9.45;4.70;;;;;;;;;;5079875;28;20430;-72
2022/06/21 06:25:24;;;;;;;10.13;4.20;;;;;;;;;;5080273;28;20429;-73
2022/06/21 06:27:54;;;;;;;9.10;4.05;;;;;;;;;;5079572;28;20443;-72
2022/06/21 06:30:22;;;;;;;9.63;4.40;;;;;;;;;;5079443;28;20433;-73
2022/06/21 06:32:54;;;;;;;11.32;4.80;;;;;;;;;;5078597;28;20415;-72
2022/06/21 06:35:24;;;;;;;9.65;4.10;;;;;;;;;;5080031;28;20422;-72
2022/06/21 06:37:50;;;;;;;10.05;4.68;;;;;;;;;;5080029;28;20416;-73
2022/06/21 06:40:21;;;;;;;11.40;4.63;;;;;;;;;;5079471;28;20442;-73
2022/06/21 06:42:48;;;;;;;9.98;3.50;;;;;;;;;;5079390;28;20424;-72
2022/06/21 06:45:18;;;;;;;10.20;3.63;;;;;;;;;;5079068;28;20424;-72
2022/06/21 06:47:47;;;;;;;5.50;2.58;;;;;;;;;;5078671;28;20433;-72
2022/06/21 06:50:17;;;;;;;9.00;2.90;;;;;;;;;;5078485;28;20443;-73
2022/06/21 06:52:46;;;;;;;7.95;3.05;;;;;;;;;;5078925;28;20423;-72
2022/06/21 06:55:15;;;;;;;9.25;2.90;;;;;;;;;;5077645;28;20435;-73
2022/06/21 06:57:45;;;;;;;8.43;3.28;;;;;;;;;;5078442;28;20416;-73
2022/06/21 07:00:13;;;;;;;7.47;2.50;;;;;;;;;;5077697;28;20934;-72
2022/06/21 07:02:41;;;;;;;8.50;2.70;;;;;;;;;;5078940;28;20428;-73
2022/06/21 07:05:12;;;;;;;10.43;2.90;;;;;;;;;;5078382;28;20415;-73
2022/06/21 07:07:42;;;;;;;6.13;2.92;;;;;;;;;;5079323;28;20410;-73
2022/06/21 07:10:13;;;;;;;9.45;2.70;;;;;;;;;;5077608;28;20438;-72
2022/06/21 07:12:39;;;;;;;10.48;2.90;;;;;;;;;;5074707;28;20438;-73
2022/06/21 07:15:09;;;;;;;10.43;2.85;;;;;;;;;;5077543;28;20406;-73
2022/06/21 07:17:38;;;;;;;10.55;3.05;;;;;;;;;;5078609;28;20425;-73
2022/06/21 07:20:06;;;;;;;7.63;2.83;;;;;;;;;;5079118;28;20889;-73
2022/06/21 07:22:35;;;;;;;8.65;2.90;;;;;;;;;;5077549;28;20426;-73
2022/06/21 07:25:04;;;;;;;6.28;2.70;;;;;;;;;;5078444;28;20441;-73
2022/06/21 07:27:33;;;;;;;6.55;2.53;;;;;;;;;;5078265;28;20413;-73
2022/06/21 07:30:02;;;;;;;8.82;2.90;;;;;;;;;;5076344;28;20433;-73
2022/06/21 07:32:30;;;;;;;5.90;2.70;;;;;;;;;;5078295;28;20418;-73
2022/06/21 07:34:59;;;;;;;8.02;2.53;;;;;;;;;;5077646;28;20817;-73
2022/06/21 07:37:28;;;;;;;8.13;2.72;;;;;;;;;;5075888;28;20426;-73
2022/06/21 07:39:57;;;;;;;9.00;3.10;;;;;;;;;;5077544;28;20795;-73
2022/06/21 07:42:25;;;;;;;10.88;2.95;;;;;;;;;;5077890;28;20426;-73
2022/06/21 07:44:55;;;;;;;7.45;2.90;;;;;;;;;;5076210;28;20409;-73
2022/06/21 07:47:24;;;;;;;8.25;3.20;;;;;;;;;;5075682;28;20422;-73
2022/06/21 07:49:52;;;;;;;4.55;2.90;;;;;;;;;;5078321;28;20429;-73
2022/06/21 07:52:20;;;;;;;7.60;2.97;;;;;;;;;;5077204;28;20436;-73
2022/06/21 07:54:51;;;;;;;5.95;2.75;;;;;;;;;;5076899;28;20437;-73
2022/06/21 07:57:19;;;;;;;8.27;3.40;;;;;;;;;;5076299;28;20918;-73
2022/06/21 07:59:48;;;;;;;8.43;3.60;;;;;;;;;;5077974;28;20412;-73
2022/06/21 08:07:50;;;;;;;6.60;3.00;;;;;;;;;;5076378;28;20525;-73
2022/06/21 08:10:19;;;;;;;7.70;2.92;;;;;;;;;;5077188;28;20442;-73
2022/06/21 08:12:45;;;;;;;7.93;3.00;;;;;;;;;;5077612;28;20418;-73
2022/06/21 08:15:11;;;;;;;8.45;2.95;;;;;;;;;;5076999;28;20901;-73
2022/06/21 08:17:42;;;;;;;6.18;2.50;;;;;;;;;;5077723;28;20769;-73
2022/06/21 08:20:12;;;;;;;5.28;2.70;;;;;;;;;;5082079;28;20416;-74
2022/06/21 08:22:41;;;;;;;6.43;2.72;;;;;;;;;;5081036;28;20449;-73
2022/06/21 08:25:16;;;;;;;5.80;3.00;;;;;;;;;;5080278;28;20429;-74
2022/06/21 08:27:48;;;;;;;7.13;3.17;;;;;;;;;;5081339;28;20973;-74
2022/06/21 08:30:17;;;;;;;4.03;2.50;;;;;;;;;;5083205;28;20421;-73
2022/06/21 08:32:49;;;;;;;6.77;2.67;;;;;;;;;;5082126;28;20911;-73
2022/06/21 08:35:18;;;;;;;7.35;2.53;;;;;;;;;;5081311;28;20478;-74
2022/06/21 08:37:47;;;;;;;4.63;2.40;;;;;;;;;;5081820;28;20422;-73
2022/06/21 08:40:26;;;;;;;6.82;3.10;;;;;;;;;;5081058;28;20423;-73
2022/06/21 08:43:03;;;;;;;10.43;2.78;;;;;;;;;;5076976;28;20918;-74
2022/06/21 08:45:44;;;;;;;6.35;2.92;;;;;;;;;;5078173;28;20914;-73
2022/06/21 08:48:29;;;;;;;4.43;2.60;;;;;;;;;;5078065;28;20420;-73
2022/06/21 08:51:21;;;;;;;4.28;2.50;;;;;;;;;;5080918;28;20415;-73
2022/06/21 08:53:55;;;;;;;8.15;2.40;;;;;;;;;;5078223;28;20412;-73
2022/06/21 08:56:23;;;;;;;6.38;2.70;;;;;;;;;;5080023;28;20425;-73
2022/06/21 08:58:57;;;;;;;9.03;2.73;;;;;;;;;;5079483;28;20423;-73
2022/06/21 09:01:29;;;;;;;8.13;2.80;;;;;;;;;;5078907;28;20422;-74
2022/06/21 09:04:05;;;;;;;6.60;2.92;;;;;;;;;;5079375;28;20915;-74
2022/06/21 09:06:37;;;;;;;5.85;2.33;;;;;;;;;;5081227;28;20892;-74
2022/06/21 09:09:10;;;;;;;9.27;3.00;;;;;;;;;;5080784;28;20434;-73
2022/06/21 09:11:40;;;;;;;9.52;2.70;;;;;;;;;;5080504;28;20430;-74
2022/06/21 09:14:15;;;;;;;7.80;3.07;;;;;;;;;;5080527;28;20794;-74
2022/06/21 09:16:44;;;;;;;7.10;2.40;;;;;;;;;;5080722;28;20447;-73
2022/06/21 09:19:15;;;;;;;4.50;2.40;;;;;;;;;;5079149;28;20992;-73
2022/06/21 09:21:46;;;;;;;5.95;2.90;;;;;;;;;;5078191;28;20431;-73
2022/06/21 09:24:18;;;;;;;7.53;2.90;;;;;;;;;;5079017;28;20423;-74
2022/06/21 09:26:45;;;;;;;5.88;2.40;;;;;;;;;;5080931;28;20445;-74
2022/06/21 09:29:24;;;;;;;10.07;3.42;;;;;;;;;;5079062;28;20909;-73
2022/06/21 09:31:55;;;;;;;8.23;2.80;;;;;;;;;;5081190;28;20410;-74
2022/06/21 09:34:26;;;;;;;5.00;2.53;;;;;;;;;;5079147;28;20494;-74
2022/06/21 09:36:56;;;;;;;9.18;2.75;;;;;;;;;;5080965;28;20824;-74
2022/06/21 09:39:27;;;;;;;4.40;2.33;;;;;;;;;;5079998;28;20781;-74
2022/06/21 09:41:55;;;;;;;7.97;2.92;;;;;;;;;;5080698;28;20429;-74
2022/06/21 09:44:25;;;;;;;6.72;2.80;;;;;;;;;;5078956;28;20426;-74
2022/06/21 09:46:54;;;;;;;8.95;2.80;;;;;;;;;;5080731;28;20414;-74
2022/06/21 09:49:29;;;;;;;6.28;2.67;;;;;;;;;;5080320;28;20414;-74
2022/06/21 09:51:59;;;;;;;6.37;3.30;;;;;;;;;;5079727;28;21003;-74
2022/06/21 09:54:32;;;;;;;6.18;3.10;;;;;;;;;;5079769;28;20436;-74
2022/06/21 09:57:02;;;;;;;7.03;2.90;;;;;;;;;;5077874;28;20439;-74
2022/06/21 09:59:31;;;;;;;6.27;2.47;;;;;;;;;;5079751;28;20427;-74
2022/06/21 10:01:59;;;;;;;4.97;2.70;;;;;;;;;;5079076;28;20532;-74
2022/06/21 10:04:31;;;;;;;6.57;2.70;;;;;;;;;;5076684;28;20431;-74
2022/06/21 10:07:02;;;;;;;6.78;2.80;;;;;;;;;;5079707;28;21579;-74
2022/06/21 10:09:34;;;;;;;5.97;2.60;;;;;;;;;;5079947;28;20901;-74
2022/06/21 10:12:06;;;;;;;6.18;2.60;;;;;;;;;;5078547;28;20437;-74
2022/06/21 10:14:42;;;;;;;7.82;3.00;;;;;;;;;;5079419;28;20799;-74
2022/06/21 10:17:27;;;;;;;5.22;2.60;;;;;;;;;;5076549;28;20482;-74
2022/06/21 10:20:01;;;;;;;6.15;3.13;;;;;;;;;;5080641;28;20418;-74
2022/06/21 10:22:30;;;;;;;6.00;3.20;;;;;;;;;;5079724;28;20414;-74
2022/06/21 10:25:08;;;;;;;8.25;3.10;;;;;;;;;;5078150;28;20423;-74
2022/06/21 10:27:40;;;;;;;5.57;3.57;;;;;;;;;;5079178;28;20408;-74
2022/06/21 10:30:28;;;;;;;5.18;3.22;;;;;;;;;;5078671;28;20416;-73
2022/06/21 10:33:09;;;;;;;8.35;3.35;;;;;;;;;;5078075;28;20418;-74
2022/06/21 10:35:43;;;;;;;7.35;3.20;;;;;;;;;;5079737;28;20773;-74
2022/06/21 10:38:16;;;;;;;7.03;3.60;;;;;;;;;;5078028;28;20985;-73
2022/06/21 10:40:51;;;;;;;8.30;3.30;;;;;;;;;;5079385;28;20474;-73
2022/06/21 10:43:26;;;;;;;6.40;3.40;;;;;;;;;;5077867;28;20434;-74
2022/06/21 10:45:55;;;;;;;6.75;3.15;;;;;;;;;;5078141;28;20463;-73
2022/06/21 10:48:48;;;;;;;7.47;4.10;;;;;;;;;;5080193;28;20907;-74
2022/06/21 10:51:19;;;;;;;5.60;3.20;;;;;;;;;;5030717;28;20518;-74
2022/06/21 10:53:57;;;;;;;5.13;2.85;;;;;;;;;;5076930;28;20966;-73
2022/06/21 10:59:21;;;;;;;6.82;3.60;;;;;;;;;;5077782;28;20426;-74
2022/06/21 11:01:48;;;;;;;6.80;3.30;;;;;;;;;;5078407;28;20429;-74
2022/06/21 11:04:45;;;;;;;6.10;3.83;;;;;;;;;;5078739;28;20420;-74
2022/06/21 11:07:16;;;;;;;4.45;3.50;;;;;;;;;;4977009;28;20453;-74
2022/06/21 11:09:47;;;;;;;6.32;3.25;;;;;;;;;;5056108;28;20459;-74
2022/06/21 11:15:05;;;;;;;9.65;3.67;;;;;;;;;;5077923;28;20413;-74
2022/06/21 11:17:37;;;;;;;6.93;3.47;;;;;;;;;;5075844;28;20411;-74
2022/06/21 11:20:08;;;;;;;6.05;2.88;;;;;;;;;;5078015;28;20426;-74
2022/06/21 11:22:41;;;;;;;5.00;2.80;;;;;;;;;;5078736;28;20424;-74
2022/06/21 11:25:12;;;;;;;5.05;2.60;;;;;;;;;;5077931;28;20421;-74
2022/06/21 11:27:42;;;;;;;5.07;2.77;;;;;;;;;;5076014;28;20426;-74
2022/06/21 11:30:13;;;;;;;4.78;2.05;;;;;;;;;;5078154;28;20417;-74
2022/06/21 11:32:44;;;;;;;5.68;2.70;;;;;;;;;;5076922;28;20420;-74
2022/06/21 11:35:15;;;;;;;5.95;2.83;;;;;;;;;;5076638;28;20889;-74
2022/06/21 11:37:47;;;;;;;6.60;2.97;;;;;;;;;;5078945;28;20420;-74
2022/06/21 11:40:26;;;;;;;4.60;2.42;;;;;;;;;;5090461;22;20447;-75
2022/06/21 11:42:54;;;;;;;6.00;2.90;;;;;;;;;;5077572;28;20425;-74
2022/06/21 11:45:27;;;;;;;4.70;2.78;;;;;;;;;;5077200;28;20417;-74
2022/06/21 11:48:00;;;;;;;4.47;2.30;;;;;;;;;;5073051;28;20426;-75
2022/06/21 11:50:30;;;;;;;7.90;2.40;;;;;;;;;;5076474;28;20432;-75
2022/06/21 11:53:07;;;;;;;6.10;2.63;;;;;;;;;;5074867;28;20425;-74
2022/06/21 11:55:37;;;;;;;8.53;3.20;;;;;;;;;;5075874;28;20425;-74
2022/06/21 11:58:09;;;;;;;4.70;2.67;;;;;;;;;;5076354;28;20967;-75
2022/06/21 12:00:38;;;;;;;4.65;2.40;;;;;;;;;;5076198;28;20423;-74
2022/06/21 12:03:05;;;;;;;4.53;2.80;;;;;;;;;;5076919;28;20503;-74
2022/06/21 12:05:36;;;;;;;4.30;2.80;;;;;;;;;;5076410;28;20431;-74
2022/06/21 12:08:08;;;;;;;6.30;3.30;;;;;;;;;;5078214;28;20465;-74
2022/06/21 12:10:41;;;;;;;5.93;2.90;;;;;;;;;;5077094;28;20483;-74
2022/06/21 12:13:13;;;;;;;5.23;3.00;;;;;;;;;;5076078;28;20414;-74
2022/06/21 12:15:45;;;;;;;3.30;2.25;;;;;;;;;;5077576;28;20415;-75
2022/06/21 12:18:13;;;;;;;5.05;2.25;;;;;;;;;;5076760;28;20801;-74
2022/06/21 12:20:42;;;;;;;5.40;2.40;;;;;;;;;;5073791;28;20953;-74
2022/06/21 12:23:16;;;;;;;5.18;2.45;;;;;;;;;;5075356;28;20467;-74
2022/06/21 12:25:42;;;;;;;4.65;2.92;;;;;;;;;;5076714;28;20417;-74
2022/06/21 12:28:12;;;;;;;6.90;3.40;;;;;;;;;;5074303;28;20421;-74
2022/06/21 12:30:39;;;;;;;6.25;2.80;;;;;;;;;;5077324;28;20415;-74
2022/06/21 12:33:07;;;;;;;4.60;2.43;;;;;;;;;;5077028;28;20424;-74
2022/06/21 12:35:39;;;;;;;5.78;2.88;;;;;;;;;;5077634;28;20424;-75
2022/06/21 12:38:08;;;;;;;5.88;2.83;;;;;;;;;;5073688;28;20922;-75
2022/06/21 12:40:37;;;;;;;5.40;2.58;;;;;;;;;;5075584;28;20427;-75
2022/06/21 12:43:14;;;;;;;7.60;3.20;;;;;;;;;;5076179;28;20417;-74
2022/06/21 12:45:47;;;;;;;5.10;2.90;;;;;;;;;;5078219;28;20414;-74
2022/06/21 12:48:20;;;;;;;5.15;2.50;;;;;;;;;;5075958;28;20427;-74
2022/06/21 12:50:48;;;;;;;4.35;2.20;;;;;;;;;;5077764;28;20776;-74
2022/06/21 12:53:30;;;;;;;4.63;2.70;;;;;;;;;;5075233;28;20466;-75
2022/06/21 12:56:00;;;;;;;5.97;2.50;;;;;;;;;;5074975;28;20427;-74
2022/06/21 12:58:33;;;;;;;8.10;2.42;;;;;;;;;;5072073;28;20787;-75
2022/06/21 13:01:01;;;;;;;5.03;2.40;;;;;;;;;;5077085;28;20407;-74
2022/06/21 13:03:46;;;;;;;4.80;2.40;;;;;;;;;;5076280;28;20417;-73
2022/06/21 13:06:28;;;;;;;4.35;2.30;;;;;;;;;;5078664;28;20513;-74
2022/06/21 13:09:02;;;;;;;5.25;2.50;;;;;;;;;;5078865;28;20414;-75
2022/06/21 13:11:39;;;;;;;4.43;2.47;;;;;;;;;;5079608;28;20440;-74
2022/06/21 13:14:21;;;;;;;3.80;2.40;;;;;;;;;;5080692;28;20410;-74
2022/06/21 13:16:52;;;;;;;4.60;2.70;;;;;;;;;;5080972;28;20418;-75
2022/06/21 13:19:27;;;;;;;7.07;3.15;;;;;;;;;;5078007;28;20418;-75
2022/06/21 13:21:59;;;;;;;6.60;2.40;;;;;;;;;;5080981;28;20417;-75
2022/06/21 13:24:33;;;;;;;5.55;2.42;;;;;;;;;;5076323;28;20434;-75
2022/06/21 13:27:11;;;;;;;6.82;2.70;;;;;;;;;;5080281;28;20410;-75
2022/06/21 13:29:47;;;;;;;4.75;2.60;;;;;;;;;;5080362;28;20873;-74
2022/06/21 13:32:16;;;;;;;5.25;2.30;;;;;;;;;;5079534;28;20830;-74
2022/06/21 13:34:45;;;;;;;4.85;2.38;;;;;;;;;;5073791;28;20432;-74
2022/06/21 13:37:15;;;;;;;4.72;2.42;;;;;;;;;;5079206;28;20932;-74
2022/06/21 13:39:44;;;;;;;4.73;2.40;;;;;;;;;;5078992;28;20449;-74
2022/06/21 13:45:01;;;;;;;7.75;2.55;;;;;;;;;;5078477;28;20953;-74
2022/06/21 13:47:31;;;;;;;5.68;2.47;;;;;;;;;;5079486;28;20377;-75
2022/06/21 13:50:02;;;;;;;3.40;2.22;;;;;;;;;;5077391;28;20899;-74
2022/06/21 13:52:32;;;;;;;4.78;2.70;;;;;;;;;;5078262;28;20427;-74
2022/06/21 13:55:00;;;;;;;6.50;2.80;;;;;;;;;;5079557;28;20469;-74
2022/06/21 13:57:47;;;;;;;4.82;2.70;;;;;;;;;;5077470;28;20437;-75
2022/06/21 14:00:17;;;;;;;4.80;2.90;;;;;;;;;;5074717;28;20459;-74
2022/06/21 14:02:46;;;;;;;7.82;3.17;;;;;;;;;;5079925;28;20417;-74
2022/06/21 14:05:15;;;;;;;4.10;2.60;;;;;;;;;;5078997;28;20769;-74
2022/06/21 14:07:45;;;;;;;3.80;3.00;;;;;;;;;;5075630;28;20423;-75
2022/06/21 14:10:14;;;;;;;5.55;3.10;;;;;;;;;;5079116;28;20495;-75
2022/06/21 14:12:45;;;;;;;6.23;3.30;;;;;;;;;;5078192;28;20419;-75
2022/06/21 14:15:14;;;;;;;6.22;3.17;;;;;;;;;;5078408;28;20939;-74
2022/06/21 14:17:45;;;;;;;4.78;2.60;;;;;;;;;;5077226;28;20413;-74
2022/06/21 14:20:18;;;;;;;5.13;2.90;;;;;;;;;;5079524;28;20467;-74
2022/06/21 14:22:51;;;;;;;6.22;2.80;;;;;;;;;;5077426;28;20451;-75
2022/06/21 14:25:21;;;;;;;5.10;2.38;;;;;;;;;;5076805;28;20460;-75
2022/06/21 14:27:51;;;;;;;5.90;2.70;;;;;;;;;;5078154;28;20430;-75
2022/06/21 14:30:19;;;;;;;4.60;2.30;;;;;;;;;;5079599;28;20413;-75
2022/06/21 14:32:49;;;;;;;6.60;2.60;;;;;;;;;;5078657;28;20414;-74
2022/06/21 14:35:18;;;;;;;5.45;2.30;;;;;;;;;;5078943;28;20411;-74
2022/06/21 14:37:48;;;;;;;5.43;2.40;;;;;;;;;;5077336;28;20803;-75
2022/06/21 14:40:21;;;;;;;5.20;2.58;;;;;;;;;;5078855;28;20434;-74
2022/06/21 14:42:49;;;;;;;4.22;2.50;;;;;;;;;;5077509;28;20410;-75
2022/06/21 14:45:19;;;;;;;3.70;2.33;;;;;;;;;;5077701;28;20427;-74
2022/06/21 14:47:50;;;;;;;4.93;2.42;;;;;;;;;;5078947;28;20427;-74
2022/06/21 14:50:20;;;;;;;3.78;2.13;;;;;;;;;;5078249;28;20411;-75
2022/06/21 14:53:01;;;;;;;4.82;2.53;;;;;;;;;;5078014;28;20408;-75
2022/06/21 14:55:37;;;;;;;6.10;2.47;;;;;;;;;;5072873;28;20447;-74
2022/06/21 14:58:10;;;;;;;5.30;2.58;;;;;;;;;;5077833;28;20422;-73
2022/06/21 15:00:42;;;;;;;5.80;2.20;;;;;;;;;;5078707;28;20809;-74
2022/06/21 15:03:15;;;;;;;4.25;2.40;;;;;;;;;;5074562;28;20423;-75
2022/06/21 15:05:50;;;;;;;6.95;2.20;;;;;;;;;;5077759;28;20803;-75
2022/06/21 15:08:22;;;;;;;5.22;2.40;;;;;;;;;;5076391;28;20416;-74
2022/06/21 15:10:50;;;;;;;6.45;2.30;;;;;;;;;;5078832;28;20422;-74